Marlow Heights, Maryland
Current Conditions -  °F | °C
As of 10:21 AM on Monday 22 Dec 2014 (Local Time) from KADW Reporting Station
Overcast Overcast  
Wind Chill: 28°   Ceiling: 4000
Heat Index: 34°   Visibility: 10mi
Dew Point: 28°   Wind: 7mph
Humidity: 81%   Direction: 50°NE
Pressure: 30.27"   Gusts: NA
Location:  38.8377°N, 76.9193°W
Report Text: KADW 221521Z 05006KT 10SM OVC040 01/M02 A3027 RMK AO2A DZE1521 PRESFR SLP255
Loading
Personal Weather Stations






























Interactive Weather Map New forecast layout! Learn more

10-Day Weather Forecast

Advertisements
Track Severe Weather on mobile